createdAt,value
2023-03-31T00:00:53.409Z,46.50
2023-03-31T00:02:58.541Z,46.50
2023-03-31T00:05:01.051Z,46.50
2023-03-31T00:07:06.009Z,46.50
2023-03-31T00:09:21.863Z,46.40
2023-03-31T00:11:23.571Z,46.50
2023-03-31T00:13:25.233Z,46.40
2023-03-31T00:15:27.448Z,46.40
2023-03-31T00:17:29.139Z,46.50
2023-03-31T00:19:33.129Z,46.40
2023-03-31T00:21:34.802Z,46.40
2023-03-31T00:23:36.517Z,46.40
2023-03-31T00:25:41.418Z,46.50
2023-03-31T00:27:44.232Z,46.50
2023-03-31T00:29:45.906Z,46.40
2023-03-31T00:31:47.528Z,46.40
2023-03-31T00:33:49.801Z,46.40
2023-03-31T00:35:52.275Z,46.40
2023-03-31T00:37:53.978Z,46.40
2023-03-31T00:39:56.412Z,46.40
2023-03-31T00:41:58.568Z,46.40
2023-03-31T00:44:24.434Z,46.40
2023-03-31T00:46:38.445Z,46.40
2023-03-31T00:48:49.884Z,46.40
2023-03-31T00:50:56.152Z,46.40
2023-03-31T00:53:03.080Z,46.50
2023-03-31T00:55:16.719Z,46.50
2023-03-31T00:57:18.564Z,46.40
2023-03-31T00:59:24.398Z,46.40
2023-03-31T01:01:26.504Z,46.40
2023-03-31T01:03:33.591Z,46.40
2023-03-31T01:06:01.310Z,46.40
2023-03-31T01:08:05.720Z,46.30
2023-03-31T01:10:08.743Z,46.40
2023-03-31T01:12:11.167Z,46.40
2023-03-31T01:14:13.090Z,46.40
2023-03-31T01:16:14.812Z,46.40
2023-03-31T01:18:20.863Z,46.40
2023-03-31T01:20:22.753Z,46.40
2023-03-31T01:22:59.312Z,46.40
2023-03-31T01:25:33.846Z,46.40
2023-03-31T01:28:16.658Z,46.40
2023-03-31T01:30:30.328Z,46.40
2023-03-31T01:32:53.531Z,46.40
2023-03-31T01:35:13.788Z,46.40
2023-03-31T01:37:27.339Z,46.40
2023-03-31T01:40:02.579Z,46.30
2023-03-31T01:42:38.330Z,46.30
2023-03-31T01:44:55.389Z,46.30
2023-03-31T01:47:22.494Z,46.30
2023-03-31T01:49:41.149Z,46.30
2023-03-31T01:51:59.935Z,46.40
2023-03-31T01:54:29.491Z,46.30
2023-03-31T01:56:39.146Z,46.30
2023-03-31T01:58:47.394Z,46.30
2023-03-31T02:01:01.840Z,46.30
2023-03-31T02:03:19.281Z,46.30
2023-03-31T02:05:26.224Z,46.30
2023-03-31T02:07:34.754Z,46.30
2023-03-31T02:09:40.790Z,46.30
2023-03-31T02:11:44.579Z,46.30
2023-03-31T02:13:49.120Z,46.30
2023-03-31T02:15:57.942Z,46.30
2023-03-31T02:18:03.589Z,46.30
2023-03-31T02:20:11.335Z,46.20
2023-03-31T02:22:14.167Z,46.20
2023-03-31T02:24:19.278Z,46.30
2023-03-31T02:26:25.556Z,46.20
2023-03-31T02:28:28.557Z,46.20
2023-03-31T02:30:55.720Z,46.20
2023-03-31T02:32:57.944Z,46.20
2023-03-31T02:35:01.055Z,46.20
2023-03-31T02:37:02.893Z,46.10
2023-03-31T02:39:12.017Z,46.20
2023-03-31T02:41:13.760Z,46.20
2023-03-31T02:43:15.472Z,46.20
2023-03-31T02:45:56.208Z,46.20
2023-03-31T02:47:57.939Z,46.20
2023-03-31T02:50:01.502Z,46.10
2023-03-31T02:52:28.196Z,46.20
2023-03-31T02:55:10.200Z,46.20
2023-03-31T02:57:37.375Z,46.20
2023-03-31T03:00:08.138Z,46.20
2023-03-31T03:02:37.369Z,46.10
2023-03-31T03:05:08.706Z,46.10
2023-03-31T03:07:17.512Z,46.10
2023-03-31T03:09:54.144Z,46.10
2023-03-31T03:12:12.054Z,46.10
2023-03-31T03:14:37.333Z,46.20
2023-03-31T03:16:46.244Z,46.10
2023-03-31T03:19:02.689Z,46.20
2023-03-31T03:21:04.515Z,46.20
2023-03-31T03:23:06.172Z,46.20
2023-03-31T03:25:13.731Z,46.20
2023-03-31T03:27:15.970Z,46.20
2023-03-31T03:29:17.624Z,46.20
2023-03-31T03:31:21.043Z,46.10
2023-03-31T03:33:25.070Z,46.20
2023-03-31T03:35:26.844Z,46.10
2023-03-31T03:37:29.423Z,46.10
2023-03-31T03:39:31.102Z,46.10
2023-03-31T03:41:33.276Z,46.10
2023-03-31T03:43:35.238Z,46.10
2023-03-31T03:45:36.858Z,46.00
2023-03-31T03:47:38.597Z,45.90
2023-03-31T03:49:40.297Z,45.80
2023-03-31T03:51:42.136Z,45.70
2023-03-31T03:53:43.832Z,45.60
2023-03-31T03:55:45.796Z,45.50
2023-03-31T03:57:47.419Z,45.50
2023-03-31T03:59:49.065Z,45.40
2023-03-31T04:01:51.522Z,45.30
2023-03-31T04:03:53.251Z,45.30
2023-03-31T04:05:54.889Z,45.30
2023-03-31T04:07:56.623Z,45.20
2023-03-31T04:09:58.218Z,45.20
2023-03-31T04:12:00.630Z,45.10
2023-03-31T04:14:02.606Z,45.20
2023-03-31T04:16:04.588Z,45.20
2023-03-31T04:18:06.471Z,45.10
2023-03-31T04:20:10.059Z,45.20
2023-03-31T04:22:15.428Z,45.30
2023-03-31T04:24:21.799Z,45.30
2023-03-31T04:26:30.708Z,45.50
2023-03-31T04:28:35.013Z,45.50
2023-03-31T04:30:39.811Z,45.60
2023-03-31T04:32:41.568Z,45.70
2023-03-31T04:34:46.546Z,45.70
2023-03-31T04:36:48.386Z,45.70
2023-03-31T04:38:54.568Z,45.70
2023-03-31T04:40:56.303Z,45.80
2023-03-31T04:42:57.973Z,45.90
2023-03-31T04:44:59.581Z,45.80
2023-03-31T04:47:03.170Z,45.80
2023-03-31T04:49:05.743Z,45.80
2023-03-31T04:51:08.724Z,45.90
2023-03-31T04:53:10.406Z,45.90
2023-03-31T04:55:12.041Z,45.90
2023-03-31T04:57:13.883Z,46.00
2023-03-31T04:59:15.599Z,46.00
2023-03-31T05:01:18.324Z,46.00
2023-03-31T05:03:20.665Z,46.00
2023-03-31T05:05:22.553Z,46.00
2023-03-31T05:07:24.234Z,46.00
2023-03-31T05:09:25.953Z,46.70
2023-03-31T05:11:28.938Z,46.00
2023-03-31T05:13:30.686Z,46.10
2023-03-31T05:15:34.588Z,46.10
2023-03-31T05:17:37.075Z,46.20
2023-03-31T05:19:38.804Z,46.30
2023-03-31T05:21:40.447Z,46.40
2023-03-31T05:23:42.532Z,46.60
2023-03-31T05:25:44.141Z,46.50
2023-03-31T05:27:47.484Z,46.50
2023-03-31T05:29:49.145Z,46.50
2023-03-31T05:31:50.991Z,46.50
2023-03-31T05:33:52.629Z,46.40
2023-03-31T05:35:54.455Z,47.00
2023-03-31T05:37:56.072Z,46.30
2023-03-31T05:39:57.894Z,46.30
2023-03-31T05:42:00.675Z,46.40
2023-03-31T05:44:02.314Z,46.40
2023-03-31T05:46:04.874Z,46.40
2023-03-31T05:48:07.082Z,46.40
2023-03-31T05:50:09.528Z,46.40
2023-03-31T05:52:11.639Z,46.40
2023-03-31T05:54:13.712Z,46.40
2023-03-31T05:56:15.439Z,46.40
2023-03-31T05:58:17.095Z,46.40
2023-03-31T06:00:19.613Z,46.30
2023-03-31T06:02:21.344Z,46.40
2023-03-31T06:04:24.344Z,46.30
2023-03-31T06:06:27.768Z,46.40
2023-03-31T06:08:29.776Z,46.40
2023-03-31T06:10:31.442Z,46.40
2023-03-31T06:12:33.050Z,46.40
2023-03-31T06:14:34.656Z,46.40
2023-03-31T06:16:36.302Z,46.50
2023-03-31T06:18:37.999Z,46.50
2023-03-31T06:20:41.653Z,46.50
2023-03-31T06:22:43.305Z,46.50
2023-03-31T06:24:44.947Z,46.40
2023-03-31T06:26:46.620Z,46.40
2023-03-31T06:28:48.559Z,46.50
2023-03-31T06:30:50.355Z,46.50
2023-03-31T06:32:52.012Z,46.60
2023-03-31T06:34:53.786Z,46.70
2023-03-31T06:36:55.543Z,46.70
2023-03-31T06:38:57.168Z,46.60
2023-03-31T06:40:58.991Z,46.60
2023-03-31T06:43:00.719Z,46.70
2023-03-31T06:45:02.404Z,46.70
2023-03-31T06:47:04.143Z,46.70
2023-03-31T06:49:05.874Z,46.80
2023-03-31T06:51:08.295Z,46.70
2023-03-31T06:53:10.893Z,46.70
2023-03-31T06:55:13.516Z,46.70
2023-03-31T06:57:15.706Z,46.80
2023-03-31T06:59:17.506Z,47.20
2023-03-31T07:01:19.229Z,47.50
2023-03-31T07:03:22.503Z,47.70
2023-03-31T07:05:28.583Z,48.00
2023-03-31T07:07:34.087Z,48.20
2023-03-31T07:09:35.797Z,48.40
2023-03-31T07:11:37.457Z,48.50
2023-03-31T07:13:39.067Z,48.70
2023-03-31T07:15:40.663Z,48.70
2023-03-31T07:17:43.043Z,48.70
2023-03-31T07:19:48.050Z,48.90
2023-03-31T07:21:50.413Z,49.00
2023-03-31T07:23:52.115Z,49.00
2023-03-31T07:25:53.781Z,49.10
2023-03-31T07:27:55.585Z,49.10
2023-03-31T07:29:57.239Z,49.20
2023-03-31T07:31:58.934Z,49.20
2023-03-31T07:34:02.629Z,49.30
2023-03-31T07:36:11.627Z,49.30
2023-03-31T07:38:14.226Z,49.30
2023-03-31T07:40:20.080Z,49.30
2023-03-31T07:42:21.794Z,49.30
2023-03-31T07:44:23.488Z,49.30
2023-03-31T07:46:28.301Z,49.40
2023-03-31T07:48:30.068Z,49.30
2023-03-31T07:50:31.860Z,49.30
2023-03-31T07:52:34.193Z,49.20
2023-03-31T07:54:35.918Z,49.30
2023-03-31T07:56:37.713Z,49.40
2023-03-31T07:58:39.499Z,49.40
2023-03-31T08:00:41.353Z,49.50
2023-03-31T08:02:43.798Z,49.30
2023-03-31T08:04:47.613Z,49.20
2023-03-31T08:06:51.011Z,49.20
2023-03-31T08:08:52.617Z,49.20
2023-03-31T08:10:54.420Z,49.20
2023-03-31T08:12:56.210Z,49.20
2023-03-31T08:14:57.880Z,49.10
2023-03-31T08:17:00.238Z,49.10
2023-03-31T08:19:01.981Z,49.00
2023-03-31T08:21:03.802Z,48.90
2023-03-31T08:23:09.035Z,48.90
2023-03-31T08:25:11.212Z,48.80
2023-03-31T08:27:12.840Z,48.80
2023-03-31T08:29:14.603Z,48.80
2023-03-31T08:31:18.608Z,48.70
2023-03-31T08:33:20.334Z,48.70
2023-03-31T08:35:22.151Z,48.60
2023-03-31T08:37:24.147Z,48.60
2023-03-31T08:39:27.207Z,48.50
2023-03-31T08:41:44.227Z,48.50
2023-03-31T08:43:48.408Z,48.40
2023-03-31T08:45:50.606Z,48.40
2023-03-31T08:47:58.168Z,48.40
2023-03-31T08:50:06.650Z,48.40
2023-03-31T08:52:14.533Z,48.30
2023-03-31T08:54:42.457Z,48.30
2023-03-31T08:56:48.562Z,48.20
2023-03-31T08:58:51.218Z,48.30
2023-03-31T09:01:22.578Z,48.30
2023-03-31T09:03:28.771Z,47.30
2023-03-31T09:06:00.497Z,47.20
2023-03-31T09:08:20.880Z,47.80
2023-03-31T09:10:59.734Z,48.20
2023-03-31T09:13:05.804Z,48.20
2023-03-31T09:15:15.474Z,48.20
2023-03-31T09:17:24.474Z,48.10
2023-03-31T09:19:41.443Z,48.10
2023-03-31T09:21:51.745Z,48.10
2023-03-31T09:23:57.446Z,48.00
2023-03-31T09:26:01.409Z,47.90
2023-03-31T09:28:20.496Z,47.90
2023-03-31T09:30:28.559Z,47.90
2023-03-31T09:32:31.444Z,47.90
2023-03-31T09:34:34.921Z,47.90
2023-03-31T09:36:37.468Z,47.90
2023-03-31T09:38:40.258Z,47.90
2023-03-31T09:40:42.544Z,47.80
2023-03-31T09:42:45.994Z,47.80
2023-03-31T09:44:50.135Z,47.60
2023-03-31T09:46:53.168Z,47.60
2023-03-31T09:49:27.139Z,47.60
2023-03-31T09:51:32.845Z,47.50
2023-03-31T09:53:47.212Z,47.50
2023-03-31T09:55:53.844Z,47.20
2023-03-31T09:57:55.578Z,47.10
2023-03-31T10:00:22.305Z,46.10
2023-03-31T10:02:36.744Z,45.10
2023-03-31T10:04:46.445Z,45.50
2023-03-31T10:06:49.035Z,46.00
2023-03-31T10:09:02.166Z,46.10
2023-03-31T10:11:04.020Z,46.00
2023-03-31T10:13:10.707Z,46.10
2023-03-31T10:15:19.732Z,46.10
2023-03-31T10:17:27.909Z,46.00
2023-03-31T10:19:33.022Z,46.00
2023-03-31T10:21:37.291Z,45.90
2023-03-31T10:23:39.073Z,46.00
2023-03-31T10:25:40.957Z,46.00
2023-03-31T10:27:47.771Z,46.70
2023-03-31T10:30:02.921Z,46.10
2023-03-31T10:32:12.245Z,46.00
2023-03-31T10:34:17.101Z,46.00
2023-03-31T10:36:26.652Z,45.70
2023-03-31T10:38:34.507Z,45.90
2023-03-31T10:40:37.031Z,45.90
2023-03-31T10:42:38.932Z,46.00
2023-03-31T10:44:40.712Z,45.80
2023-03-31T10:46:52.340Z,45.80
2023-03-31T10:48:54.092Z,46.50
2023-03-31T10:51:19.573Z,45.80
2023-03-31T10:53:22.052Z,45.90
2023-03-31T10:55:41.512Z,45.80
2023-03-31T10:58:14.352Z,45.90
2023-03-31T11:00:44.649Z,45.50
2023-03-31T11:03:13.496Z,45.60
2023-03-31T11:05:45.887Z,45.40
2023-03-31T11:08:13.171Z,45.30
2023-03-31T11:10:20.904Z,45.20
2023-03-31T11:12:39.811Z,45.10
2023-03-31T11:15:03.302Z,44.90
2023-03-31T11:17:11.177Z,45.20
2023-03-31T11:19:37.732Z,45.10
2023-03-31T11:21:39.622Z,45.80
2023-03-31T11:23:43.895Z,45.00
2023-03-31T11:26:16.800Z,44.90
2023-03-31T11:28:21.485Z,44.90
2023-03-31T11:30:36.015Z,45.00
2023-03-31T11:33:01.400Z,44.90
2023-03-31T11:35:21.277Z,44.90
2023-03-31T11:37:41.580Z,44.80
2023-03-31T11:40:07.854Z,44.80
2023-03-31T11:42:45.805Z,44.80
2023-03-31T11:44:53.049Z,44.80
2023-03-31T11:47:06.525Z,44.80
2023-03-31T11:49:30.819Z,44.80
2023-03-31T11:51:55.613Z,44.80
2023-03-31T11:53:59.820Z,43.80
2023-03-31T11:56:06.497Z,44.40
2023-03-31T11:58:16.976Z,44.60
2023-03-31T12:00:25.404Z,44.50
2023-03-31T12:02:52.798Z,44.50
2023-03-31T12:04:57.414Z,44.60
2023-03-31T12:07:14.484Z,44.60
2023-03-31T12:09:25.897Z,44.60
2023-03-31T12:11:49.813Z,44.30
2023-03-31T12:14:06.602Z,44.20
2023-03-31T12:16:26.967Z,44.10
2023-03-31T12:18:33.992Z,44.00
2023-03-31T12:20:41.494Z,44.00
2023-03-31T12:22:48.045Z,44.00
2023-03-31T12:24:51.349Z,44.00
2023-03-31T12:27:27.714Z,44.00
2023-03-31T12:29:48.503Z,44.00
2023-03-31T12:31:53.208Z,44.00
2023-03-31T12:34:02.183Z,44.00
2023-03-31T12:36:23.370Z,44.00
2023-03-31T12:38:33.362Z,44.00
2023-03-31T12:40:59.072Z,43.90
2023-03-31T12:43:20.232Z,43.90
2023-03-31T12:45:29.355Z,43.80
2023-03-31T12:47:36.026Z,43.60
2023-03-31T12:50:22.937Z,43.80
2023-03-31T12:52:39.401Z,43.60
2023-03-31T12:54:41.022Z,43.60
2023-03-31T12:57:19.204Z,43.60
2023-03-31T12:59:39.575Z,43.60
2023-03-31T13:02:16.418Z,44.50
2023-03-31T13:04:21.573Z,43.80
2023-03-31T13:06:26.193Z,43.90
2023-03-31T13:08:50.575Z,43.90
2023-03-31T13:10:59.211Z,43.90
2023-03-31T13:13:05.535Z,44.10
2023-03-31T13:15:14.509Z,44.10
2023-03-31T13:17:36.087Z,44.10
2023-03-31T13:19:39.788Z,44.20
2023-03-31T13:21:58.600Z,44.20
2023-03-31T13:24:01.848Z,44.20
2023-03-31T13:26:04.372Z,44.20
2023-03-31T13:28:11.143Z,44.20
2023-03-31T13:30:35.582Z,44.20
2023-03-31T13:32:39.131Z,44.30
2023-03-31T13:35:04.246Z,44.30
2023-03-31T13:37:21.650Z,45.00
2023-03-31T13:39:29.033Z,44.30
2023-03-31T13:42:05.928Z,44.30
2023-03-31T13:44:33.468Z,44.20
2023-03-31T13:46:52.064Z,44.30
2023-03-31T13:49:07.931Z,44.30
2023-03-31T13:51:34.675Z,44.30
2023-03-31T13:53:41.865Z,44.30
2023-03-31T13:55:56.087Z,44.30
2023-03-31T13:58:30.014Z,44.30
2023-03-31T14:00:51.355Z,44.30
2023-03-31T14:03:30.838Z,44.20
2023-03-31T14:05:40.383Z,44.30
2023-03-31T14:07:49.638Z,44.20
2023-03-31T14:09:53.917Z,44.20
2023-03-31T14:11:56.594Z,44.20
2023-03-31T14:14:11.364Z,44.30
2023-03-31T14:16:14.192Z,44.20
2023-03-31T14:18:23.297Z,44.90
2023-03-31T14:20:41.678Z,44.40
2023-03-31T14:22:47.602Z,44.40
2023-03-31T14:24:52.245Z,44.50
2023-03-31T14:27:08.317Z,44.60
2023-03-31T14:29:26.596Z,44.70
2023-03-31T14:31:42.033Z,44.80
2023-03-31T14:34:12.513Z,44.70
2023-03-31T14:36:41.641Z,44.40
2023-03-31T14:38:44.929Z,44.70
2023-03-31T14:40:56.296Z,44.70
2023-03-31T14:42:58.919Z,44.80
2023-03-31T14:45:09.750Z,44.80
2023-03-31T14:47:16.684Z,44.90
2023-03-31T14:49:27.417Z,44.80
2023-03-31T14:51:30.783Z,44.80
2023-03-31T14:53:35.909Z,44.80
2023-03-31T14:55:54.314Z,44.90
2023-03-31T14:58:01.769Z,45.00
2023-03-31T15:00:10.087Z,45.00
2023-03-31T15:02:36.855Z,44.90
2023-03-31T15:04:45.153Z,45.00
2023-03-31T15:06:48.666Z,45.00
2023-03-31T15:08:53.867Z,45.00
2023-03-31T15:11:02.284Z,45.10
2023-03-31T15:13:33.098Z,45.80
2023-03-31T15:15:34.704Z,45.10
2023-03-31T15:17:43.442Z,45.20
2023-03-31T15:19:45.260Z,45.10
2023-03-31T15:21:53.838Z,45.10
2023-03-31T15:23:56.275Z,45.10
2023-03-31T15:26:05.794Z,45.20
2023-03-31T15:28:12.183Z,45.30
2023-03-31T15:30:21.056Z,45.30
2023-03-31T15:32:37.340Z,45.30
2023-03-31T15:34:39.410Z,45.30
2023-03-31T15:36:41.136Z,45.30
2023-03-31T15:38:43.304Z,45.10
2023-03-31T15:40:47.938Z,43.30
2023-03-31T15:43:02.091Z,43.50
2023-03-31T15:45:33.101Z,44.10
2023-03-31T15:47:38.643Z,44.50
2023-03-31T15:49:49.718Z,44.80
2023-03-31T15:51:53.050Z,44.90
2023-03-31T15:53:54.867Z,45.00
2023-03-31T15:55:59.920Z,45.10
2023-03-31T15:58:01.923Z,45.20
2023-03-31T16:00:07.085Z,45.30
2023-03-31T16:02:13.493Z,45.50
2023-03-31T16:04:16.480Z,45.70
2023-03-31T16:06:36.924Z,45.70
2023-03-31T16:08:47.357Z,45.80
2023-03-31T16:10:55.337Z,45.80
2023-03-31T16:13:01.688Z,45.80
2023-03-31T16:15:16.344Z,45.90
2023-03-31T16:17:31.980Z,45.90
2023-03-31T16:19:47.028Z,45.90
2023-03-31T16:21:52.617Z,45.90
2023-03-31T16:23:57.276Z,45.90
2023-03-31T16:26:00.670Z,46.00
2023-03-31T16:28:02.838Z,45.90
2023-03-31T16:30:16.601Z,46.00
2023-03-31T16:32:20.624Z,46.00
2023-03-31T16:34:22.258Z,46.10
2023-03-31T16:36:24.038Z,46.00
2023-03-31T16:38:28.271Z,46.10
2023-03-31T16:40:34.746Z,46.20
2023-03-31T16:42:36.414Z,46.00
2023-03-31T16:44:38.318Z,46.00
2023-03-31T16:46:40.926Z,46.00
2023-03-31T16:48:42.639Z,46.00
2023-03-31T16:50:48.395Z,46.00
2023-03-31T16:52:50.131Z,46.20
2023-03-31T16:54:51.772Z,46.20
2023-03-31T16:56:53.526Z,46.30
2023-03-31T16:58:56.215Z,46.40
2023-03-31T17:00:58.484Z,46.60
2023-03-31T17:03:01.503Z,46.60
2023-03-31T17:07:07.961Z,47.30
2023-03-31T17:09:09.606Z,47.50
2023-03-31T17:11:14.096Z,47.70
2023-03-31T17:13:16.101Z,47.00
2023-03-31T17:15:17.839Z,47.10
2023-03-31T17:17:19.559Z,47.40
2023-03-31T17:19:22.595Z,47.60
2023-03-31T17:21:24.591Z,47.80
2023-03-31T17:23:26.391Z,47.80
2023-03-31T17:25:28.265Z,47.90
2023-03-31T17:27:30.261Z,48.00
2023-03-31T17:29:32.268Z,47.90
2023-03-31T17:31:33.954Z,47.90
2023-03-31T17:33:35.702Z,47.80
2023-03-31T17:35:38.083Z,47.80
2023-03-31T17:37:39.758Z,48.00
2023-03-31T17:39:42.815Z,48.00
2023-03-31T17:41:44.449Z,47.90
2023-03-31T17:43:47.271Z,47.90
2023-03-31T17:45:49.390Z,48.00
2023-03-31T17:47:51.687Z,48.20
2023-03-31T17:49:53.454Z,48.20
2023-03-31T17:51:55.174Z,48.30
2023-03-31T17:53:57.412Z,48.30
2023-03-31T17:55:59.085Z,48.40
2023-03-31T17:58:01.425Z,48.40
2023-03-31T18:00:09.008Z,48.40
2023-03-31T18:02:15.494Z,48.50
2023-03-31T18:04:17.266Z,48.60
2023-03-31T18:06:19.135Z,48.60
2023-03-31T18:08:20.985Z,48.60
2023-03-31T18:10:24.220Z,48.60
2023-03-31T18:12:27.917Z,48.60
2023-03-31T18:14:30.285Z,48.70
2023-03-31T18:16:33.108Z,48.80
2023-03-31T18:18:39.611Z,48.70
2023-03-31T18:20:42.326Z,48.80
2023-03-31T18:22:44.324Z,48.80
2023-03-31T18:24:45.997Z,48.80
2023-03-31T18:26:47.698Z,49.10
2023-03-31T18:28:50.464Z,48.80
2023-03-31T18:30:53.274Z,48.70
2023-03-31T18:32:55.216Z,48.70
2023-03-31T18:34:57.419Z,48.60
2023-03-31T18:36:59.070Z,48.70
2023-03-31T18:39:00.763Z,49.00
2023-03-31T18:41:02.847Z,48.80
2023-03-31T18:43:05.134Z,49.00
2023-03-31T18:45:08.804Z,49.00
2023-03-31T18:47:10.562Z,49.10
2023-03-31T18:49:13.577Z,49.20
2023-03-31T18:51:15.400Z,49.30
2023-03-31T18:53:18.938Z,49.20
2023-03-31T18:55:20.890Z,49.30
2023-03-31T18:57:22.937Z,49.40
2023-03-31T18:59:25.084Z,49.40
2023-03-31T19:01:27.174Z,49.40
2023-03-31T19:03:29.314Z,49.40
2023-03-31T19:05:31.042Z,49.50
2023-03-31T19:07:33.045Z,49.50
2023-03-31T19:09:34.813Z,49.50
2023-03-31T19:11:38.042Z,49.50
2023-03-31T19:13:41.964Z,49.50
2023-03-31T19:15:43.629Z,49.50
2023-03-31T19:17:45.592Z,49.60
2023-03-31T19:19:47.594Z,49.60
2023-03-31T19:21:49.956Z,49.70
2023-03-31T19:23:51.645Z,49.70
2023-03-31T19:25:54.734Z,49.60
2023-03-31T19:27:56.373Z,49.70
2023-03-31T19:29:58.056Z,49.70
2023-03-31T19:31:59.764Z,49.70
2023-03-31T19:34:01.407Z,49.70
2023-03-31T19:36:03.194Z,49.80
2023-03-31T19:38:04.974Z,49.80
2023-03-31T19:40:07.400Z,49.70
2023-03-31T19:42:09.048Z,49.80
2023-03-31T19:44:10.661Z,49.90
2023-03-31T19:46:12.401Z,49.80
2023-03-31T19:48:14.647Z,49.80
2023-03-31T19:50:16.345Z,49.80
2023-03-31T19:52:18.129Z,49.90
2023-03-31T19:54:19.821Z,49.90
2023-03-31T19:56:25.123Z,49.90
2023-03-31T19:58:27.509Z,49.90
2023-03-31T20:00:29.120Z,49.90
2023-03-31T20:02:31.053Z,49.90
2023-03-31T20:04:33.114Z,49.90
2023-03-31T20:06:35.668Z,50.00
2023-03-31T20:08:38.342Z,50.00
2023-03-31T20:10:41.363Z,50.00
2023-03-31T20:12:43.373Z,50.10
2023-03-31T20:14:45.105Z,50.00
2023-03-31T20:16:47.933Z,50.00
2023-03-31T20:18:54.868Z,50.10
2023-03-31T20:21:05.623Z,50.00
2023-03-31T20:23:07.570Z,50.10
2023-03-31T20:25:09.395Z,50.20
2023-03-31T20:27:11.016Z,50.10
2023-03-31T20:29:13.333Z,50.20
2023-03-31T20:31:26.541Z,50.10
2023-03-31T20:33:28.366Z,50.10
2023-03-31T20:35:30.225Z,50.20
2023-03-31T20:37:32.654Z,50.10
2023-03-31T20:39:34.341Z,50.10
2023-03-31T20:41:37.480Z,50.20
2023-03-31T20:43:40.107Z,50.20
2023-03-31T20:45:41.966Z,50.20
2023-03-31T20:47:44.105Z,50.20
2023-03-31T20:49:46.403Z,50.20
2023-03-31T20:51:48.960Z,50.20
2023-03-31T20:53:53.051Z,50.20
2023-03-31T20:55:54.768Z,50.20
2023-03-31T20:57:56.481Z,50.30
2023-03-31T20:59:58.442Z,50.40
2023-03-31T21:02:00.886Z,50.40
2023-03-31T21:04:05.040Z,50.40
2023-03-31T21:06:11.456Z,50.40
2023-03-31T21:08:13.823Z,50.50
2023-03-31T21:10:15.540Z,50.60
2023-03-31T21:12:17.608Z,50.70
2023-03-31T21:14:19.309Z,50.60
2023-03-31T21:16:22.126Z,50.60
2023-03-31T21:18:24.293Z,50.70
2023-03-31T21:20:26.171Z,50.60
2023-03-31T21:22:27.807Z,50.80
2023-03-31T21:24:29.428Z,50.80
2023-03-31T21:26:31.179Z,50.80
2023-03-31T21:28:36.202Z,50.90
2023-03-31T21:30:37.992Z,51.50
2023-03-31T21:32:39.675Z,51.00
2023-03-31T21:34:41.534Z,50.80
2023-03-31T21:36:43.180Z,50.80
2023-03-31T21:38:45.668Z,50.90
2023-03-31T21:40:48.244Z,50.90
2023-03-31T21:42:49.896Z,50.90
2023-03-31T21:44:58.586Z,50.80
2023-03-31T21:47:00.207Z,50.90
2023-03-31T21:49:02.650Z,50.90
2023-03-31T21:51:04.568Z,50.80
2023-03-31T21:53:07.256Z,50.70
2023-03-31T21:55:09.217Z,50.80
2023-03-31T21:57:11.361Z,50.70
2023-03-31T21:59:13.021Z,50.70
2023-03-31T22:01:14.732Z,50.80
2023-03-31T22:03:27.034Z,50.70
2023-03-31T22:05:31.686Z,50.80
2023-03-31T22:07:33.573Z,50.80
2023-03-31T22:09:35.697Z,50.70
2023-03-31T22:11:37.317Z,50.70
2023-03-31T22:13:39.795Z,50.80
2023-03-31T22:15:42.149Z,50.70
2023-03-31T22:17:43.992Z,50.70
2023-03-31T22:19:45.629Z,51.30
2023-03-31T22:21:47.488Z,50.60
2023-03-31T22:23:52.482Z,50.60
2023-03-31T22:25:54.497Z,50.60
2023-03-31T22:27:56.393Z,50.60
2023-03-31T22:29:58.027Z,50.50
2023-03-31T22:31:59.779Z,50.60
2023-03-31T22:34:01.614Z,50.50
2023-03-31T22:36:03.452Z,50.50
2023-03-31T22:38:06.604Z,50.50
2023-03-31T22:40:09.823Z,50.50
2023-03-31T22:42:11.803Z,50.60
2023-03-31T22:44:13.504Z,50.60
2023-03-31T22:46:15.958Z,51.10
2023-03-31T22:48:18.220Z,50.50
2023-03-31T22:50:19.881Z,50.50
2023-03-31T22:52:21.660Z,50.50
2023-03-31T22:54:23.304Z,50.50
2023-03-31T22:56:24.951Z,50.40
2023-03-31T22:58:26.569Z,50.40
2023-03-31T23:00:28.231Z,50.50
2023-03-31T23:02:29.885Z,50.40
2023-03-31T23:04:31.596Z,50.50
2023-03-31T23:06:35.466Z,50.40
2023-03-31T23:08:38.757Z,50.40
2023-03-31T23:10:40.453Z,50.40
2023-03-31T23:12:42.158Z,50.40
2023-03-31T23:14:43.822Z,50.40
2023-03-31T23:16:45.648Z,50.30
2023-03-31T23:18:48.557Z,50.40
2023-03-31T23:20:50.473Z,50.40
2023-03-31T23:22:53.276Z,50.40
2023-03-31T23:24:55.422Z,50.30
2023-03-31T23:26:57.189Z,50.40
2023-03-31T23:28:59.887Z,50.40
2023-03-31T23:31:01.598Z,50.30
2023-03-31T23:33:03.281Z,50.30
2023-03-31T23:35:05.633Z,50.30
2023-03-31T23:37:12.289Z,50.30
2023-03-31T23:39:14.163Z,50.30
2023-03-31T23:41:16.903Z,50.40
2023-03-31T23:43:18.553Z,50.30
2023-03-31T23:45:20.172Z,50.30
2023-03-31T23:47:21.858Z,50.30
2023-03-31T23:49:23.501Z,50.30
2023-03-31T23:51:25.592Z,50.20
2023-03-31T23:53:27.317Z,50.90
2023-03-31T23:55:29.252Z,50.30
2023-03-31T23:57:31.192Z,50.30
2023-03-31T23:59:32.891Z,50.30
